createdAt,value
2022-11-06T00:01:13.578Z,2.87
2022-11-06T00:04:15.111Z,2.84
2022-11-06T00:07:16.610Z,2.81
2022-11-06T00:10:18.831Z,2.75
2022-11-06T00:13:20.339Z,2.73
2022-11-06T00:16:22.008Z,2.66
2022-11-06T00:19:23.530Z,2.66
2022-11-06T00:22:25.174Z,2.64
2022-11-06T00:25:26.671Z,2.59
2022-11-06T00:28:28.189Z,2.57
2022-11-06T00:31:32.920Z,2.52
2022-11-06T00:34:35.035Z,2.46
2022-11-06T00:37:36.633Z,2.40
2022-11-06T00:40:38.246Z,2.33
2022-11-06T00:43:40.635Z,2.33
2022-11-06T00:46:42.145Z,2.33
2022-11-06T00:49:43.666Z,2.32
2022-11-06T00:52:45.308Z,2.34
2022-11-06T00:55:46.820Z,2.36
2022-11-06T00:58:48.714Z,2.37
2022-11-06T01:01:50.405Z,2.38
2022-11-06T01:04:52.015Z,2.44
2022-11-06T01:07:53.477Z,2.52
2022-11-06T01:10:54.955Z,2.59
2022-11-06T01:13:59.513Z,2.61
2022-11-06T01:17:01.026Z,2.58
2022-11-06T01:20:04.791Z,2.59
2022-11-06T01:23:06.313Z,2.55
2022-11-06T01:26:09.710Z,2.49
2022-11-06T01:29:15.122Z,2.50
2022-11-06T01:32:16.661Z,2.52
2022-11-06T01:35:18.098Z,2.39
2022-11-06T01:38:19.585Z,2.34
2022-11-06T01:41:24.863Z,2.31
2022-11-06T01:44:55.619Z,2.27
2022-11-06T01:47:57.234Z,2.22
2022-11-06T01:50:59.055Z,2.23
2022-11-06T01:54:02.962Z,2.18
2022-11-06T01:57:05.166Z,2.15
2022-11-06T02:00:07.581Z,2.14
2022-11-06T02:03:10.041Z,2.09
2022-11-06T02:06:12.016Z,2.03
2022-11-06T02:09:14.760Z,2.05
2022-11-06T02:12:47.934Z,2.00
2022-11-06T02:16:03.939Z,1.97
2022-11-06T02:19:30.426Z,1.95
2022-11-06T02:22:56.866Z,1.94
2022-11-06T02:26:17.010Z,1.93
2022-11-06T02:29:22.562Z,1.92
2022-11-06T02:32:50.714Z,1.90
2022-11-06T02:36:03.094Z,1.88
2022-11-06T02:39:11.016Z,1.79
2022-11-06T02:42:16.345Z,1.72
2022-11-06T02:45:19.849Z,1.68
2022-11-06T02:48:28.383Z,1.62
2022-11-06T02:51:34.293Z,1.60
2022-11-06T02:54:41.568Z,1.59
2022-11-06T02:57:49.282Z,1.56
2022-11-06T03:01:00.238Z,1.52
2022-11-06T03:04:07.655Z,1.51
2022-11-06T03:07:18.467Z,1.52
2022-11-06T03:10:21.052Z,1.56
2022-11-06T03:13:32.047Z,1.54
2022-11-06T03:16:53.673Z,1.50
2022-11-06T03:20:13.515Z,1.50
2022-11-06T03:23:27.902Z,1.48
2022-11-06T03:26:35.953Z,1.46
2022-11-06T03:30:03.819Z,1.47
2022-11-06T03:33:27.830Z,1.42
2022-11-06T03:36:42.377Z,1.39
2022-11-06T03:39:50.606Z,1.32
2022-11-06T03:42:57.131Z,1.33
2022-11-06T03:46:02.019Z,1.35
2022-11-06T03:49:10.129Z,1.38
2022-11-06T03:52:18.946Z,1.39
2022-11-06T03:55:26.658Z,1.36
2022-11-06T03:58:34.007Z,1.39
2022-11-06T04:01:42.426Z,1.37
2022-11-06T04:04:51.265Z,1.33
2022-11-06T04:08:15.244Z,1.34
2022-11-06T04:11:39.270Z,1.32
2022-11-06T04:14:44.676Z,1.32
2022-11-06T04:17:46.317Z,1.31
2022-11-06T04:21:27.672Z,1.30
2022-11-06T04:25:21.319Z,1.27
2022-11-06T04:28:44.009Z,1.23
2022-11-06T04:31:57.512Z,1.23
2022-11-06T04:35:10.136Z,1.25
2022-11-06T04:38:27.201Z,1.26
2022-11-06T04:42:01.358Z,1.31
2022-11-06T04:45:08.475Z,1.31
2022-11-06T04:48:11.271Z,1.28
2022-11-06T04:51:14.399Z,1.27
2022-11-06T04:54:16.513Z,1.29
2022-11-06T04:57:18.097Z,1.24
2022-11-06T05:00:19.807Z,1.17
2022-11-06T05:03:21.255Z,1.11
2022-11-06T05:06:28.736Z,1.11
2022-11-06T05:09:31.632Z,1.09
2022-11-06T05:12:33.179Z,1.10
2022-11-06T05:15:34.795Z,1.11
2022-11-06T05:18:36.382Z,1.10
2022-11-06T05:21:56.720Z,1.09
2022-11-06T05:24:58.197Z,1.04
2022-11-06T05:28:01.062Z,1.02
2022-11-06T05:31:02.963Z,0.99
2022-11-06T05:34:04.581Z,0.98
2022-11-06T05:37:06.082Z,0.97
2022-11-06T05:40:11.276Z,0.93
2022-11-06T05:43:13.015Z,0.91
2022-11-06T05:46:35.749Z,0.87
2022-11-06T05:49:36.116Z,0.90
2022-11-06T05:52:37.938Z,0.87
2022-11-06T05:55:39.559Z,0.86
2022-11-06T05:58:41.086Z,0.86
2022-11-06T06:01:42.776Z,0.87
2022-11-06T06:04:44.405Z,0.83
2022-11-06T06:07:45.888Z,0.81
2022-11-06T06:10:48.135Z,0.85
2022-11-06T06:13:49.618Z,0.87
2022-11-06T06:16:51.124Z,0.86
2022-11-06T06:19:53.027Z,0.94
2022-11-06T06:22:56.109Z,0.96
2022-11-06T06:25:57.681Z,0.99
2022-11-06T06:28:59.196Z,0.99
2022-11-06T06:32:00.731Z,0.99
2022-11-06T06:35:02.220Z,1.03
2022-11-06T06:38:03.714Z,1.07
2022-11-06T06:41:07.142Z,1.09
2022-11-06T06:44:08.758Z,1.14
2022-11-06T06:47:10.239Z,1.16
2022-11-06T06:50:11.809Z,1.23
2022-11-06T06:53:13.311Z,1.31
2022-11-06T06:56:15.627Z,1.33
2022-11-06T06:59:17.217Z,1.32
2022-11-06T07:02:19.076Z,1.41
2022-11-06T07:05:20.866Z,1.54
2022-11-06T07:08:22.357Z,1.70
2022-11-06T07:11:23.891Z,1.86
2022-11-06T07:14:25.433Z,1.92
2022-11-06T07:17:27.716Z,1.97
2022-11-06T07:20:29.699Z,2.18
2022-11-06T07:23:31.235Z,2.35
2022-11-06T07:26:32.706Z,2.49
2022-11-06T07:29:34.221Z,2.62
2022-11-06T07:32:35.746Z,2.72
2022-11-06T07:35:37.273Z,2.73
2022-11-06T07:38:40.654Z,2.85
2022-11-06T07:41:42.188Z,2.98
2022-11-06T07:44:43.690Z,3.11
2022-11-06T07:47:45.236Z,3.11
2022-11-06T07:50:46.704Z,3.23
2022-11-06T07:53:48.190Z,3.29
2022-11-06T07:56:49.707Z,3.32
2022-11-06T07:59:51.263Z,3.60
2022-11-06T08:02:53.478Z,3.82
2022-11-06T08:05:55.102Z,4.09
2022-11-06T08:08:59.010Z,4.24
2022-11-06T08:12:00.793Z,4.47
2022-11-06T08:15:02.758Z,4.68
2022-11-06T08:18:05.730Z,4.83
2022-11-06T08:21:07.856Z,4.88
2022-11-06T08:24:09.781Z,4.91
2022-11-06T08:27:11.266Z,4.82
2022-11-06T08:30:12.884Z,4.74
2022-11-06T08:33:14.353Z,4.61
2022-11-06T08:36:16.787Z,4.58
2022-11-06T08:39:18.319Z,4.63
2022-11-06T08:42:19.943Z,4.66
2022-11-06T08:45:21.458Z,4.62
2022-11-06T08:48:23.017Z,4.84
2022-11-06T08:51:24.577Z,5.15
2022-11-06T08:54:26.394Z,5.35
2022-11-06T08:57:28.314Z,5.55
2022-11-06T09:00:35.644Z,5.71
2022-11-06T09:03:37.181Z,5.71
2022-11-06T09:06:38.794Z,5.77
2022-11-06T09:09:40.266Z,5.84
2022-11-06T09:12:41.937Z,5.96
2022-11-06T09:15:43.486Z,6.10
2022-11-06T09:18:44.959Z,6.21
2022-11-06T09:21:51.849Z,6.43
2022-11-06T09:25:03.706Z,6.62
2022-11-06T09:28:06.006Z,6.70
2022-11-06T09:31:10.511Z,6.86
2022-11-06T09:34:12.073Z,6.94
2022-11-06T09:37:13.606Z,7.18
2022-11-06T09:40:24.500Z,7.28
2022-11-06T09:47:23.467Z,7.68
2022-11-06T09:50:29.555Z,7.85
2022-11-06T09:53:42.574Z,8.07
2022-11-06T09:56:49.786Z,8.28
2022-11-06T09:59:51.683Z,8.44
2022-11-06T10:02:55.789Z,8.51
2022-11-06T10:05:57.665Z,8.62
2022-11-06T10:09:05.995Z,8.76
2022-11-06T10:12:07.669Z,8.92
2022-11-06T10:15:24.792Z,8.97
2022-11-06T10:18:33.725Z,9.17
2022-11-06T10:21:38.164Z,9.27
2022-11-06T10:24:47.005Z,9.22
2022-11-06T10:28:03.647Z,9.15
2022-11-06T10:31:30.064Z,8.99
2022-11-06T10:34:39.797Z,8.86
2022-11-06T10:37:50.592Z,8.95
2022-11-06T10:40:53.995Z,9.10
2022-11-06T10:44:02.722Z,9.17
2022-11-06T10:47:13.023Z,9.21
2022-11-06T10:50:16.993Z,9.15
2022-11-06T10:53:33.384Z,9.01
2022-11-06T10:57:19.580Z,9.19
2022-11-06T11:00:21.115Z,9.40
2022-11-06T11:03:34.206Z,9.42
2022-11-06T11:06:39.760Z,9.53
2022-11-06T11:09:41.311Z,9.72
2022-11-06T11:12:45.738Z,9.95
2022-11-06T11:15:47.861Z,10.01
2022-11-06T11:18:51.034Z,10.08
2022-11-06T11:21:58.618Z,10.23
2022-11-06T11:25:09.055Z,10.45
2022-11-06T11:28:22.098Z,10.43
2022-11-06T11:31:34.933Z,10.58
2022-11-06T11:34:49.371Z,10.53
2022-11-06T11:38:06.946Z,10.41
2022-11-06T11:41:32.540Z,10.35
2022-11-06T11:44:34.079Z,10.33
2022-11-06T11:47:37.598Z,10.30
2022-11-06T11:50:39.827Z,10.39
2022-11-06T11:53:50.447Z,10.35
2022-11-06T11:57:05.269Z,10.40
2022-11-06T12:00:16.574Z,10.53
2022-11-06T12:03:19.021Z,10.45
2022-11-06T12:06:20.615Z,10.49
2022-11-06T12:09:23.192Z,10.75
2022-11-06T12:12:35.015Z,10.70
2022-11-06T12:15:58.582Z,10.79
2022-11-06T12:19:05.421Z,10.87
2022-11-06T12:22:15.147Z,10.85
2022-11-06T12:25:22.384Z,10.57
2022-11-06T12:28:26.043Z,10.59
2022-11-06T12:31:41.892Z,10.36
2022-11-06T12:35:02.032Z,10.24
2022-11-06T12:38:34.648Z,10.25
2022-11-06T12:41:40.639Z,10.19
2022-11-06T12:44:42.244Z,10.25
2022-11-06T12:47:59.263Z,10.09
2022-11-06T12:51:06.554Z,9.97
2022-11-06T12:54:27.535Z,10.04
2022-11-06T12:57:28.939Z,10.07
2022-11-06T13:00:58.063Z,9.94
2022-11-06T13:04:28.461Z,9.81
2022-11-06T13:07:44.950Z,9.90
2022-11-06T13:11:04.779Z,9.98
2022-11-06T13:14:22.365Z,9.92
2022-11-06T13:17:49.484Z,9.88
2022-11-06T13:21:15.948Z,9.99
2022-11-06T13:24:42.636Z,10.08
2022-11-06T13:27:58.691Z,10.29
2022-11-06T13:31:03.475Z,10.48
2022-11-06T13:34:07.539Z,10.79
2022-11-06T13:37:19.338Z,11.32
2022-11-06T13:40:26.933Z,11.95
2022-11-06T13:43:42.621Z,12.26
2022-11-06T13:46:53.310Z,11.89
2022-11-06T13:50:13.074Z,11.20
2022-11-06T13:53:24.461Z,10.71
2022-11-06T13:57:02.675Z,10.40
2022-11-06T14:00:25.480Z,10.05
2022-11-06T14:03:44.099Z,9.77
2022-11-06T14:06:47.669Z,9.58
2022-11-06T14:09:49.593Z,9.55
2022-11-06T14:12:51.678Z,9.56
2022-11-06T14:16:04.445Z,9.53
2022-11-06T14:19:32.675Z,9.48
2022-11-06T14:22:36.763Z,9.51
2022-11-06T14:25:41.280Z,9.50
2022-11-06T14:28:44.676Z,9.45
2022-11-06T14:32:02.923Z,9.34
2022-11-06T14:35:29.503Z,9.24
2022-11-06T14:38:33.905Z,9.34
2022-11-06T14:41:35.454Z,9.48
2022-11-06T14:45:14.542Z,9.64
2022-11-06T14:48:36.576Z,9.85
2022-11-06T14:51:38.502Z,9.92
2022-11-06T14:55:05.044Z,9.88
2022-11-06T14:58:23.906Z,9.83
2022-11-06T15:01:31.688Z,9.70
2022-11-06T15:04:35.112Z,9.60
2022-11-06T15:08:04.090Z,9.53
2022-11-06T15:11:01.377Z,9.41
2022-11-06T15:14:09.084Z,9.33
2022-11-06T15:17:15.298Z,9.23
2022-11-06T15:20:21.932Z,9.11
2022-11-06T15:23:24.811Z,9.01
2022-11-06T15:26:37.639Z,8.95
2022-11-06T15:29:42.644Z,8.90
2022-11-06T15:32:46.474Z,8.78
2022-11-06T15:35:49.695Z,8.75
2022-11-06T15:38:51.412Z,8.76
2022-11-06T15:41:53.200Z,8.71
2022-11-06T15:45:07.939Z,8.68
2022-11-06T15:48:21.963Z,8.64
2022-11-06T15:51:31.249Z,8.61
2022-11-06T15:54:37.381Z,8.55
2022-11-06T15:57:39.003Z,8.54
2022-11-06T16:00:44.435Z,8.52
2022-11-06T16:03:54.601Z,8.50
2022-11-06T16:06:57.297Z,8.48
2022-11-06T16:09:59.026Z,8.49
2022-11-06T16:13:03.027Z,8.40
2022-11-06T16:16:04.928Z,8.41
2022-11-06T16:19:27.580Z,8.38
2022-11-06T16:22:31.895Z,8.36
2022-11-06T16:25:33.438Z,8.32
2022-11-06T16:28:35.683Z,8.23
2022-11-06T16:31:37.886Z,8.25
2022-11-06T16:34:45.982Z,8.09
2022-11-06T16:37:47.498Z,8.09
2022-11-06T16:40:52.538Z,8.06
2022-11-06T16:44:31.337Z,8.03
2022-11-06T16:47:33.585Z,7.89
2022-11-06T16:50:46.150Z,7.79
2022-11-06T16:53:54.936Z,7.81
2022-11-06T16:57:09.743Z,7.81
2022-11-06T17:00:20.271Z,7.81
2022-11-06T17:03:23.056Z,7.83
2022-11-06T17:06:28.099Z,7.88
2022-11-06T17:09:32.623Z,7.90
2022-11-06T17:12:34.117Z,7.92
2022-11-06T17:15:35.598Z,7.94
2022-11-06T17:18:42.248Z,7.92
2022-11-06T17:21:43.953Z,8.00
2022-11-06T17:24:45.626Z,8.10
2022-11-06T17:27:47.293Z,8.21
2022-11-06T17:30:48.885Z,8.33
2022-11-06T17:33:51.333Z,8.37
2022-11-06T17:36:52.919Z,8.43
2022-11-06T17:39:54.442Z,8.60
2022-11-06T17:42:55.929Z,9.17
2022-11-06T17:45:57.646Z,9.46
2022-11-06T17:49:00.073Z,9.85
2022-11-06T17:52:01.983Z,10.32
2022-11-06T17:55:03.963Z,10.75
2022-11-06T17:58:05.724Z,10.84
2022-11-06T18:01:10.795Z,11.09
2022-11-06T18:04:12.534Z,11.16
2022-11-06T18:07:14.090Z,11.17
2022-11-06T18:10:15.649Z,11.16
2022-11-06T18:13:17.211Z,11.01
2022-11-06T18:16:25.111Z,10.76
2022-11-06T18:19:27.126Z,10.40
2022-11-06T18:22:28.686Z,10.39
2022-11-06T18:25:30.534Z,10.48
2022-11-06T18:28:32.145Z,10.27
2022-11-06T18:31:34.946Z,9.94
2022-11-06T18:34:36.484Z,9.97
2022-11-06T18:37:38.059Z,10.04
2022-11-06T18:40:41.018Z,10.30
2022-11-06T18:43:42.937Z,10.39
2022-11-06T18:46:46.040Z,10.43
2022-11-06T18:49:47.573Z,10.32
2022-11-06T18:52:57.751Z,10.23
2022-11-06T18:56:00.272Z,10.15
2022-11-06T18:59:02.072Z,10.04
2022-11-06T19:02:03.838Z,9.97
2022-11-06T19:05:06.043Z,10.06
2022-11-06T19:08:07.832Z,10.07
2022-11-06T19:11:09.535Z,10.07
2022-11-06T19:14:11.087Z,10.06
2022-11-06T19:17:12.585Z,10.20
2022-11-06T19:20:15.183Z,10.20
2022-11-06T19:23:17.153Z,10.32
2022-11-06T19:26:31.218Z,10.62
2022-11-06T19:29:33.107Z,10.74
2022-11-06T19:32:34.857Z,10.75
2022-11-06T19:35:36.707Z,10.74
2022-11-06T19:38:38.467Z,10.79
2022-11-06T19:41:40.047Z,10.94
2022-11-06T19:44:41.562Z,10.93
2022-11-06T19:47:43.170Z,11.02
2022-11-06T19:50:59.564Z,11.14
2022-11-06T19:54:01.803Z,11.22
2022-11-06T19:57:29.069Z,11.20
2022-11-06T20:00:25.129Z,11.29
2022-11-06T20:03:26.649Z,11.26
2022-11-06T20:06:28.333Z,11.22
2022-11-06T20:09:30.105Z,11.24
2022-11-06T20:12:32.196Z,11.34
2022-11-06T20:15:34.036Z,11.41
2022-11-06T20:18:36.168Z,11.58
2022-11-06T20:21:37.664Z,11.67
2022-11-06T20:24:41.475Z,11.79
2022-11-06T20:27:43.451Z,11.74
2022-11-06T20:30:45.591Z,11.71
2022-11-06T20:33:48.268Z,11.73
2022-11-06T20:36:49.803Z,11.68
2022-11-06T20:39:52.135Z,11.62
2022-11-06T20:42:53.680Z,11.62
2022-11-06T20:45:55.235Z,11.64
2022-11-06T20:48:58.243Z,11.73
2022-11-06T20:52:13.613Z,11.73
2022-11-06T20:55:15.578Z,11.75
2022-11-06T20:58:17.128Z,11.73
2022-11-06T21:01:22.035Z,11.76
2022-11-06T21:04:23.624Z,11.80
2022-11-06T21:07:25.178Z,11.83
2022-11-06T21:10:26.735Z,11.90
2022-11-06T21:13:29.787Z,11.95
2022-11-06T21:16:34.685Z,11.98
2022-11-06T21:19:36.958Z,12.09
2022-11-06T21:22:38.513Z,12.05
2022-11-06T21:25:44.931Z,12.08
2022-11-06T21:28:47.162Z,12.15
2022-11-06T21:31:49.438Z,12.17
2022-11-06T21:34:50.949Z,12.12
2022-11-06T21:37:52.416Z,12.01
2022-11-06T21:40:53.869Z,11.90
2022-11-06T21:43:56.200Z,11.68
2022-11-06T21:46:57.734Z,11.54
2022-11-06T21:49:59.244Z,11.32
2022-11-06T21:53:19.338Z,11.10
2022-11-06T21:56:25.831Z,10.91
2022-11-06T21:59:29.285Z,10.82
2022-11-06T22:02:30.919Z,10.77
2022-11-06T22:05:32.815Z,10.75
2022-11-06T22:08:39.314Z,10.74
2022-11-06T22:11:43.945Z,10.75
2022-11-06T22:14:45.398Z,10.72
2022-11-06T22:17:46.998Z,10.68
2022-11-06T22:20:48.450Z,10.62
2022-11-06T22:23:50.555Z,10.58
2022-11-06T22:26:54.876Z,10.60
2022-11-06T22:29:56.479Z,10.62
2022-11-06T22:32:58.015Z,10.74
2022-11-06T22:36:02.438Z,10.81
2022-11-06T22:39:06.436Z,10.83
2022-11-06T22:42:08.881Z,10.80
2022-11-06T22:45:10.963Z,10.79
2022-11-06T22:48:12.555Z,10.88
2022-11-06T22:51:16.584Z,11.05
2022-11-06T22:54:18.078Z,11.17
2022-11-06T22:57:19.637Z,11.21
2022-11-06T23:00:22.499Z,11.22
2022-11-06T23:03:26.696Z,11.26
2022-11-06T23:06:28.608Z,11.32
2022-11-06T23:09:30.209Z,11.40
2022-11-06T23:12:32.442Z,11.44
2022-11-06T23:15:34.245Z,11.55
2022-11-06T23:18:36.068Z,11.58
2022-11-06T23:21:37.727Z,11.59
2022-11-06T23:24:39.324Z,11.62
2022-11-06T23:27:47.037Z,11.57
2022-11-06T23:30:53.867Z,11.48
2022-11-06T23:33:55.974Z,11.57
2022-11-06T23:36:57.422Z,11.62
2022-11-06T23:39:58.986Z,11.65
2022-11-06T23:43:00.476Z,11.70
2022-11-06T23:46:02.227Z,11.76
2022-11-06T23:49:03.723Z,11.82
2022-11-06T23:52:05.252Z,11.96
2022-11-06T23:55:07.177Z,11.95
2022-11-06T23:58:08.732Z,11.90
